createdAt,value
2023-05-17T00:07:35.471Z,102422.56
2023-05-17T00:10:04.386Z,102422.19
2023-05-17T00:12:33.157Z,102431.47
2023-05-17T00:15:02.134Z,102442.09
2023-05-17T00:17:31.328Z,102448.28
2023-05-17T00:20:00.143Z,102442.63
2023-05-17T00:22:28.842Z,102432.97
2023-05-17T00:24:58.949Z,102426.63
2023-05-17T00:27:27.676Z,102433.66
2023-05-17T00:29:56.375Z,102430.44
2023-05-17T00:32:27.657Z,102430.88
2023-05-17T00:34:56.469Z,102436.69
2023-05-17T00:37:27.524Z,102441.72
2023-05-17T00:39:56.316Z,102440.09
2023-05-17T00:42:29.012Z,102449.63
2023-05-17T00:44:57.816Z,102470.25
2023-05-17T00:47:26.653Z,102440.38
2023-05-17T00:49:55.538Z,102435.06
2023-05-17T00:52:24.520Z,102438.91
2023-05-17T00:54:53.590Z,102439.28
2023-05-17T00:57:22.683Z,102446.22
2023-05-17T00:59:55.456Z,102448.81
2023-05-17T01:02:25.923Z,102440.78
2023-05-17T01:04:54.670Z,102438.91
2023-05-17T01:07:23.426Z,102439.34
2023-05-17T01:09:52.491Z,102432.16
2023-05-17T01:12:36.946Z,102425.41
2023-05-17T01:15:15.997Z,102425.84
2023-05-17T01:17:56.061Z,102377.25
2023-05-17T01:20:28.997Z,102449.56
2023-05-17T01:23:22.784Z,102391.97
2023-05-17T01:25:55.657Z,102442.63
2023-05-17T01:28:27.634Z,102436.44
2023-05-17T01:30:58.604Z,102431.19
2023-05-17T01:33:30.844Z,102434.66
2023-05-17T01:35:59.653Z,102430.28
2023-05-17T01:38:28.463Z,102430.34
2023-05-17T01:41:02.913Z,102436.28
2023-05-17T01:43:42.236Z,102424.19
2023-05-17T01:46:17.502Z,102436.03
2023-05-17T01:48:54.034Z,102439.59
2023-05-17T01:51:29.917Z,102432.91
2023-05-17T01:54:04.298Z,102432.03
2023-05-17T01:56:35.816Z,102437.25
2023-05-17T01:59:08.588Z,102429.38
2023-05-17T02:01:40.818Z,102435.16
2023-05-17T02:04:12.096Z,102434.44
2023-05-17T02:06:40.967Z,102425.41
2023-05-17T02:09:09.806Z,102435.03
2023-05-17T02:11:38.561Z,102434.00
2023-05-17T02:14:08.629Z,102432.16
2023-05-17T02:16:37.610Z,102428.69
2023-05-17T02:19:07.714Z,102428.88
2023-05-17T02:21:36.568Z,102429.09
2023-05-17T02:24:05.885Z,102425.34
2023-05-17T02:26:34.665Z,102433.69
2023-05-17T02:29:04.666Z,102424.09
2023-05-17T02:31:34.924Z,102431.63
2023-05-17T02:34:03.688Z,102437.84
2023-05-17T02:36:32.711Z,102372.16
2023-05-17T02:39:01.500Z,102448.91
2023-05-17T02:41:30.180Z,102446.31
2023-05-17T02:44:00.076Z,102439.56
2023-05-17T02:46:28.775Z,102422.28
2023-05-17T02:48:59.029Z,102444.50
2023-05-17T02:51:27.824Z,102449.56
2023-05-17T02:53:56.700Z,102439.06
2023-05-17T02:56:27.877Z,102446.91
2023-05-17T02:58:57.740Z,102432.53
2023-05-17T03:01:29.008Z,102456.50
2023-05-17T03:03:59.769Z,102454.78
2023-05-17T03:06:29.445Z,102451.53
2023-05-17T03:08:58.298Z,102452.28
2023-05-17T03:11:33.227Z,102459.25
2023-05-17T03:14:03.176Z,102459.78
2023-05-17T03:16:33.335Z,102456.78
2023-05-17T03:19:04.573Z,102463.00
2023-05-17T03:21:33.860Z,102468.56
2023-05-17T03:24:02.636Z,102467.94
2023-05-17T03:26:33.236Z,102475.00
2023-05-17T03:29:35.148Z,102475.81
2023-05-17T03:32:04.171Z,102477.53
2023-05-17T03:34:37.648Z,102474.16
2023-05-17T03:37:06.518Z,102482.03
2023-05-17T03:39:35.267Z,102472.47
2023-05-17T03:42:04.158Z,102487.94
2023-05-17T03:44:34.444Z,102488.94
2023-05-17T03:47:03.359Z,102497.69
2023-05-17T03:49:32.097Z,102488.19
2023-05-17T03:52:03.512Z,102489.16
2023-05-17T03:54:32.246Z,102472.88
2023-05-17T03:57:02.119Z,102494.34
2023-05-17T03:59:31.354Z,102501.31
2023-05-17T04:02:00.353Z,102494.53
2023-05-17T04:04:32.421Z,102506.50
2023-05-17T04:07:02.575Z,102486.84
2023-05-17T04:09:32.464Z,102513.47
2023-05-17T04:12:04.093Z,102515.22
2023-05-17T04:14:33.542Z,102522.13
2023-05-17T04:17:02.570Z,102517.81
2023-05-17T04:19:35.435Z,102528.97
2023-05-17T04:22:06.014Z,102533.34
2023-05-17T04:24:34.909Z,102528.16
2023-05-17T04:27:05.422Z,102525.63
2023-05-17T04:29:34.318Z,102534.97
2023-05-17T04:32:03.111Z,102548.22
2023-05-17T04:39:47.042Z,102552.41
2023-05-17T04:42:16.552Z,102558.31
2023-05-17T04:44:51.471Z,102564.19
2023-05-17T04:47:20.526Z,102556.19
2023-05-17T04:49:49.254Z,102564.72
2023-05-17T04:52:18.122Z,102563.69
2023-05-17T04:54:49.236Z,102567.84
2023-05-17T04:57:21.496Z,102569.41
2023-05-17T04:59:57.685Z,102561.41
2023-05-17T05:02:27.248Z,102582.63
2023-05-17T05:04:56.049Z,102581.50
2023-05-17T05:07:24.946Z,102583.03
2023-05-17T05:09:57.720Z,102576.69
2023-05-17T05:12:27.294Z,102575.88
2023-05-17T05:15:00.787Z,102588.53
2023-05-17T05:18:01.227Z,102594.34
2023-05-17T05:20:33.160Z,102589.94
2023-05-17T05:23:06.056Z,102588.81
2023-05-17T05:25:39.099Z,102601.53
2023-05-17T05:28:11.276Z,102606.47
2023-05-17T05:30:41.902Z,102608.34
2023-05-17T05:33:10.960Z,102608.81
2023-05-17T05:35:39.957Z,102611.34
2023-05-17T05:38:09.382Z,102616.31
2023-05-17T05:40:39.788Z,102618.81
2023-05-17T05:43:08.528Z,102622.91
2023-05-17T05:45:37.287Z,102631.56
2023-05-17T05:48:09.446Z,102634.06
2023-05-17T05:50:38.626Z,102638.06
2023-05-17T05:53:18.673Z,102634.31
2023-05-17T05:55:55.636Z,102636.44
2023-05-17T05:58:24.602Z,102637.53
2023-05-17T06:00:53.884Z,102644.66
2023-05-17T06:03:22.668Z,102634.63
2023-05-17T06:05:51.649Z,102638.69
2023-05-17T06:08:20.499Z,102637.09
2023-05-17T06:10:49.460Z,102633.69
2023-05-17T06:13:21.371Z,102640.78
2023-05-17T06:15:50.090Z,102637.06
2023-05-17T06:18:18.922Z,102640.44
2023-05-17T06:20:47.952Z,102644.25
2023-05-17T06:23:17.076Z,102645.44
2023-05-17T06:25:45.879Z,102652.88
2023-05-17T06:28:14.744Z,102650.78
2023-05-17T06:30:45.025Z,102650.13
2023-05-17T06:33:16.316Z,102646.41
2023-05-17T06:35:55.583Z,102650.78
2023-05-17T06:38:24.709Z,102649.81
2023-05-17T06:40:54.611Z,102652.72
2023-05-17T06:43:23.736Z,102651.34
2023-05-17T06:45:53.853Z,102650.31
2023-05-17T06:48:22.750Z,102655.94
2023-05-17T06:50:51.806Z,102662.06
2023-05-17T06:53:22.907Z,102609.31
2023-05-17T06:55:51.758Z,102659.13
2023-05-17T06:58:20.580Z,102647.69
2023-05-17T07:00:49.360Z,102651.22
2023-05-17T07:03:22.145Z,102681.19
2023-05-17T07:05:53.406Z,102668.13
2023-05-17T07:08:24.637Z,102680.31
2023-05-17T07:10:53.550Z,102672.06
2023-05-17T07:13:22.301Z,102678.56
2023-05-17T07:15:51.034Z,102681.69
2023-05-17T07:18:21.433Z,102676.09
2023-05-17T07:20:50.602Z,102664.56
2023-05-17T07:23:19.437Z,102675.97
2023-05-17T07:25:49.425Z,102675.88
2023-05-17T07:28:20.581Z,102688.88
2023-05-17T07:30:51.945Z,102687.34
2023-05-17T07:33:22.100Z,102694.47
2023-05-17T07:35:53.262Z,102694.00
2023-05-17T07:38:22.125Z,102696.66
2023-05-17T07:40:51.012Z,102710.97
2023-05-17T07:43:19.778Z,102693.84
2023-05-17T07:45:48.608Z,102702.31
2023-05-17T07:48:17.479Z,102709.25
2023-05-17T07:50:49.072Z,102716.72
2023-05-17T07:53:20.173Z,102716.41
2023-05-17T07:55:49.004Z,102717.78
2023-05-17T07:58:17.813Z,102717.31
2023-05-17T08:00:46.540Z,102715.84
2023-05-17T08:03:17.464Z,102711.78
2023-05-17T08:05:47.841Z,102715.19
2023-05-17T08:08:16.908Z,102730.63
2023-05-17T08:10:45.625Z,102732.00
2023-05-17T08:13:16.299Z,102730.28
2023-05-17T08:15:45.102Z,102732.78
2023-05-17T08:18:13.932Z,102729.22
2023-05-17T08:20:43.362Z,102736.19
2023-05-17T08:23:13.508Z,102734.69
2023-05-17T08:25:42.272Z,102740.31
2023-05-17T08:28:10.981Z,102732.41
2023-05-17T08:30:40.079Z,102730.34
2023-05-17T08:33:10.847Z,102740.84
2023-05-17T08:35:39.665Z,102721.47
2023-05-17T08:38:08.682Z,102665.28
2023-05-17T08:40:38.764Z,102734.09
2023-05-17T08:43:09.766Z,102731.56
2023-05-17T08:45:39.043Z,102743.53
2023-05-17T08:50:38.949Z,102735.28
2023-05-17T08:53:11.354Z,102729.56
2023-05-17T08:55:43.799Z,102727.59
2023-05-17T08:58:14.153Z,102733.13
2023-05-17T09:00:43.036Z,102726.06
2023-05-17T09:03:18.532Z,102724.78
2023-05-17T09:05:47.836Z,102735.56
2023-05-17T09:08:18.768Z,102730.19
2023-05-17T09:10:48.870Z,102728.63
2023-05-17T09:13:18.296Z,102734.41
2023-05-17T09:15:50.212Z,102732.75
2023-05-17T09:18:19.633Z,102727.34
2023-05-17T09:20:52.659Z,102733.75
2023-05-17T09:23:22.537Z,102715.63
2023-05-17T09:25:54.746Z,102736.06
2023-05-17T09:28:29.433Z,102700.22
2023-05-17T09:30:58.175Z,102732.72
2023-05-17T09:33:26.902Z,102734.28
2023-05-17T09:35:56.089Z,102729.81
2023-05-17T09:38:27.695Z,102736.81
2023-05-17T09:40:57.891Z,102733.00
2023-05-17T09:43:31.964Z,102731.47
2023-05-17T09:46:00.833Z,102734.97
2023-05-17T09:48:29.723Z,102712.75
2023-05-17T09:50:58.563Z,102737.25
2023-05-17T09:53:31.298Z,102729.25
2023-05-17T09:56:03.190Z,102733.34
2023-05-17T09:58:34.356Z,102740.03
2023-05-17T10:01:04.871Z,102726.97
2023-05-17T10:03:35.708Z,102725.84
2023-05-17T10:06:09.886Z,102743.34
2023-05-17T10:08:45.577Z,102710.41
2023-05-17T10:11:20.965Z,102736.16
2023-05-17T10:13:56.419Z,102726.78
2023-05-17T10:16:27.848Z,102737.88
2023-05-17T10:18:57.027Z,102735.75
2023-05-17T10:21:29.729Z,102738.38
2023-05-17T10:24:01.429Z,102731.63
2023-05-17T10:26:32.030Z,102729.09
2023-05-17T10:29:02.926Z,102723.28
2023-05-17T10:31:33.691Z,102720.50
2023-05-17T10:34:03.924Z,102722.72
2023-05-17T10:36:33.775Z,102731.97
2023-05-17T10:39:03.338Z,102709.72
2023-05-17T10:41:37.549Z,102727.47
2023-05-17T10:44:08.946Z,102722.50
2023-05-17T10:46:38.264Z,102723.34
2023-05-17T10:49:07.422Z,102728.88
2023-05-17T10:51:39.041Z,102717.69
2023-05-17T10:54:12.721Z,102731.19
2023-05-17T10:56:48.866Z,102741.53
2023-05-17T10:59:23.761Z,102719.53
2023-05-17T11:01:59.839Z,102724.78
2023-05-17T11:04:34.626Z,102732.72
2023-05-17T11:07:32.318Z,102733.44
2023-05-17T11:10:08.024Z,102727.69
2023-05-17T11:12:40.860Z,102733.69
2023-05-17T11:15:12.005Z,102731.88
2023-05-17T11:17:51.074Z,102726.84
2023-05-17T11:20:35.330Z,102731.50
2023-05-17T11:23:06.282Z,102733.50
2023-05-17T11:25:37.064Z,102732.50
2023-05-17T11:28:18.682Z,102718.47
2023-05-17T11:30:51.786Z,102723.28
2023-05-17T11:33:40.253Z,102729.81
2023-05-17T11:36:17.244Z,102743.59
2023-05-17T11:38:55.262Z,102734.28
2023-05-17T11:41:33.227Z,102732.63
2023-05-17T11:44:05.938Z,102738.41
2023-05-17T11:46:35.349Z,102728.69
2023-05-17T11:49:08.006Z,102732.22
2023-05-17T11:51:36.967Z,102732.28
2023-05-17T11:54:07.483Z,102716.88
2023-05-17T11:56:43.421Z,102728.03
2023-05-17T11:59:20.796Z,102721.38
2023-05-17T12:01:52.741Z,102721.50
2023-05-17T12:04:25.760Z,102715.44
2023-05-17T12:06:55.244Z,102717.31
2023-05-17T12:09:24.434Z,102716.97
2023-05-17T12:11:53.506Z,102726.06
2023-05-17T12:14:23.907Z,102723.00
2023-05-17T12:16:56.263Z,102709.25
2023-05-17T12:19:27.985Z,102719.66
2023-05-17T12:22:08.411Z,102725.44
2023-05-17T12:24:43.763Z,102717.97
2023-05-17T12:27:12.852Z,102710.84
2023-05-17T12:29:43.071Z,102707.13
2023-05-17T12:32:12.161Z,102708.75
2023-05-17T12:34:41.939Z,102716.06
2023-05-17T12:37:13.178Z,102710.16
2023-05-17T12:39:42.115Z,102712.06
2023-05-17T12:42:16.518Z,102717.88
2023-05-17T12:44:48.867Z,102704.16
2023-05-17T12:47:17.665Z,102712.69
2023-05-17T12:49:56.277Z,102711.13
2023-05-17T12:52:25.064Z,102701.16
2023-05-17T12:55:00.125Z,102707.00
2023-05-17T12:57:28.918Z,102698.97
2023-05-17T12:59:58.983Z,102701.16
2023-05-17T13:02:30.021Z,102707.69
2023-05-17T13:04:58.960Z,102713.53
2023-05-17T13:07:27.817Z,102710.59
2023-05-17T13:09:57.223Z,102710.03
2023-05-17T13:12:26.250Z,102716.97
2023-05-17T13:14:55.553Z,102711.56
2023-05-17T13:17:28.587Z,102718.81
2023-05-17T13:19:58.417Z,102719.03
2023-05-17T13:22:29.571Z,102656.19
2023-05-17T13:24:58.481Z,102714.16
2023-05-17T13:27:27.211Z,102717.56
2023-05-17T13:29:56.024Z,102711.09
2023-05-17T13:32:28.426Z,102687.44
2023-05-17T13:34:57.369Z,102702.94
2023-05-17T13:37:26.166Z,102701.88
2023-05-17T13:39:56.572Z,102712.56
2023-05-17T13:42:27.812Z,102702.91
2023-05-17T13:44:56.634Z,102711.28
2023-05-17T13:47:25.647Z,102701.00
2023-05-17T13:49:55.825Z,102695.44
2023-05-17T13:52:25.363Z,102708.94
2023-05-17T13:54:54.201Z,102702.31
2023-05-17T13:57:25.218Z,102699.16
2023-05-17T13:59:53.990Z,102692.09
2023-05-17T14:02:22.831Z,102699.03
2023-05-17T14:04:55.505Z,102694.44
2023-05-17T14:07:24.446Z,102696.41
2023-05-17T14:09:55.818Z,102690.56
2023-05-17T14:12:24.743Z,102687.47
2023-05-17T14:14:53.579Z,102688.81
2023-05-17T14:17:24.795Z,102696.66
2023-05-17T14:19:55.062Z,102700.53
2023-05-17T14:22:26.070Z,102694.41
2023-05-17T14:24:54.902Z,102696.44
2023-05-17T14:27:26.226Z,102700.75
2023-05-17T14:29:55.180Z,102685.75
2023-05-17T14:32:23.890Z,102696.59
2023-05-17T14:34:52.667Z,102693.91
2023-05-17T14:37:22.753Z,102647.72
2023-05-17T14:40:05.340Z,102703.72
2023-05-17T14:42:37.972Z,102704.09
2023-05-17T14:45:08.145Z,102697.56
2023-05-17T14:47:37.450Z,102708.75
2023-05-17T14:50:07.128Z,102703.19
2023-05-17T14:52:37.323Z,102699.84
2023-05-17T14:55:09.394Z,102707.97
2023-05-17T14:57:40.595Z,102703.09
2023-05-17T15:00:13.658Z,102700.47
2023-05-17T15:02:42.454Z,102698.75
2023-05-17T15:05:11.802Z,102703.53
2023-05-17T15:07:42.429Z,102710.59
2023-05-17T15:10:13.054Z,102712.84
2023-05-17T15:12:41.866Z,102713.09
2023-05-17T15:15:11.334Z,102709.06
2023-05-17T15:17:40.147Z,102704.00
2023-05-17T15:20:10.734Z,102712.91
2023-05-17T15:22:41.418Z,102699.34
2023-05-17T15:25:10.574Z,102706.47
2023-05-17T15:27:39.357Z,102702.47
2023-05-17T15:30:11.341Z,102703.31
2023-05-17T15:32:41.979Z,102709.13
2023-05-17T15:35:11.394Z,102710.63
2023-05-17T15:37:43.969Z,102704.88
2023-05-17T15:40:13.688Z,102690.63
2023-05-17T15:42:42.495Z,102708.38
2023-05-17T15:45:12.254Z,102712.91
2023-05-17T15:47:43.565Z,102714.16
2023-05-17T15:50:13.033Z,102716.31
2023-05-17T15:52:43.508Z,102728.50
2023-05-17T15:55:14.733Z,102716.72
2023-05-17T15:57:46.508Z,102651.63
2023-05-17T16:00:15.927Z,102711.78
2023-05-17T16:02:44.705Z,102704.06
2023-05-17T16:05:16.102Z,102713.66
2023-05-17T16:07:46.632Z,102716.09
2023-05-17T16:10:15.436Z,102708.13
2023-05-17T16:12:44.291Z,102717.19
2023-05-17T16:15:13.039Z,102710.41
2023-05-17T16:17:41.889Z,102712.22
2023-05-17T16:20:15.454Z,102707.44
2023-05-17T16:22:45.711Z,102710.66
2023-05-17T16:25:18.675Z,102719.69
2023-05-17T16:27:48.321Z,102713.59
2023-05-17T16:30:18.410Z,102716.31
2023-05-17T16:32:48.002Z,102714.56
2023-05-17T16:35:18.349Z,102721.84
2023-05-17T16:37:48.442Z,102712.47
2023-05-17T16:40:20.980Z,102643.75
2023-05-17T16:42:49.906Z,102717.22
2023-05-17T16:45:21.321Z,102713.84
2023-05-17T16:47:50.162Z,102722.84
2023-05-17T16:50:19.114Z,102717.78
2023-05-17T16:52:48.033Z,102709.38
2023-05-17T16:55:16.776Z,102726.00
2023-05-17T16:57:47.117Z,102722.28
2023-05-17T17:00:18.453Z,102704.72
2023-05-17T17:02:47.382Z,102725.19
2023-05-17T17:05:16.436Z,102722.28
2023-05-17T17:07:46.038Z,102728.69
2023-05-17T17:10:14.896Z,102724.44
2023-05-17T17:12:48.163Z,102725.25
2023-05-17T17:15:16.870Z,102730.09
2023-05-17T17:17:45.929Z,102728.44
2023-05-17T17:20:18.181Z,102725.38
2023-05-17T17:22:49.698Z,102724.97
2023-05-17T17:25:24.754Z,102725.16
2023-05-17T17:27:56.218Z,102724.50
2023-05-17T17:30:25.164Z,102723.91
2023-05-17T17:32:59.076Z,102719.50
2023-05-17T17:35:27.964Z,102721.59
2023-05-17T17:37:56.699Z,102732.09
2023-05-17T17:40:25.689Z,102727.34
2023-05-17T17:42:55.794Z,102726.22
2023-05-17T17:45:27.070Z,102728.31
2023-05-17T17:47:57.050Z,102658.91
2023-05-17T17:50:25.875Z,102741.00
2023-05-17T17:52:54.654Z,102716.13
2023-05-17T17:55:23.824Z,102745.88
2023-05-17T17:57:52.770Z,102750.19
2023-05-17T18:00:23.400Z,102745.88
2023-05-17T18:02:52.315Z,102745.88
2023-05-17T18:05:21.256Z,102752.50
2023-05-17T18:07:52.224Z,102760.25
2023-05-17T18:10:23.566Z,102750.69
2023-05-17T18:12:52.374Z,102757.25
2023-05-17T18:15:22.601Z,102748.56
2023-05-17T18:17:52.113Z,102754.06
2023-05-17T18:20:22.315Z,102740.53
2023-05-17T18:22:51.042Z,102740.03
2023-05-17T18:25:19.938Z,102728.97
2023-05-17T18:27:48.686Z,102754.81
2023-05-17T18:30:19.169Z,102749.16
2023-05-17T18:32:49.473Z,102763.97
2023-05-17T18:35:18.263Z,102758.06
2023-05-17T18:37:47.041Z,102759.84
2023-05-17T18:40:16.284Z,102778.09
2023-05-17T18:42:45.182Z,102754.66
2023-05-17T18:45:14.004Z,102764.13
2023-05-17T18:47:42.883Z,102761.78
2023-05-17T18:50:13.143Z,102763.63
2023-05-17T18:52:41.967Z,102766.75
2023-05-17T18:55:10.984Z,102767.88
2023-05-17T18:57:39.772Z,102763.84
2023-05-17T19:00:11.757Z,102763.75
2023-05-17T19:02:40.851Z,102757.81
2023-05-17T19:05:10.021Z,102765.75
2023-05-17T19:07:40.144Z,102772.69
2023-05-17T19:10:09.968Z,102769.28
2023-05-17T19:12:38.828Z,102772.84
2023-05-17T19:15:10.771Z,102769.28
2023-05-17T19:17:39.933Z,102778.59
2023-05-17T19:20:10.608Z,102780.25
2023-05-17T19:22:40.884Z,102782.09
2023-05-17T19:25:12.798Z,102785.66
2023-05-17T19:27:43.381Z,102776.19
2023-05-17T19:30:12.691Z,102788.44
2023-05-17T19:32:41.712Z,102783.63
2023-05-17T19:35:12.132Z,102779.66
2023-05-17T19:37:42.392Z,102766.47
2023-05-17T19:40:12.337Z,102776.06
2023-05-17T19:42:41.427Z,102791.97
2023-05-17T19:45:11.361Z,102791.84
2023-05-17T19:47:40.285Z,102786.75
2023-05-17T19:50:11.383Z,102796.16
2023-05-17T19:52:40.490Z,102793.56
2023-05-17T19:55:10.803Z,102797.03
2023-05-17T19:57:39.567Z,102805.84
2023-05-17T20:00:13.650Z,102799.91
2023-05-17T20:02:42.626Z,102802.66
2023-05-17T20:05:13.775Z,102802.56
2023-05-17T20:07:42.766Z,102800.06
2023-05-17T20:10:13.285Z,102789.06
2023-05-17T20:12:42.134Z,102795.03
2023-05-17T20:15:12.029Z,102803.47
2023-05-17T20:17:40.910Z,102791.50
2023-05-17T20:20:10.552Z,102794.03
2023-05-17T20:22:41.124Z,102791.81
2023-05-17T20:25:10.336Z,102797.09
2023-05-17T20:27:40.640Z,102771.31
2023-05-17T20:30:10.830Z,102787.59
2023-05-17T20:32:39.775Z,102768.16
2023-05-17T20:35:09.373Z,102768.97
2023-05-17T20:37:38.278Z,102790.41
2023-05-17T20:40:09.215Z,102787.88
2023-05-17T20:42:40.428Z,102795.72
2023-05-17T20:45:13.863Z,102789.75
2023-05-17T20:47:43.517Z,102786.38
2023-05-17T20:50:14.237Z,102799.53
2023-05-17T20:52:43.059Z,102794.41
2023-05-17T20:55:11.887Z,102797.88
2023-05-17T20:57:43.143Z,102794.19
2023-05-17T21:00:16.920Z,102789.78
2023-05-17T21:02:45.866Z,102801.22
2023-05-17T21:05:18.163Z,102801.25
2023-05-17T21:07:46.967Z,102793.59
2023-05-17T21:10:15.856Z,102805.69
2023-05-17T21:12:45.376Z,102789.25
2023-05-17T21:15:17.306Z,102803.31
2023-05-17T21:17:47.020Z,102815.34
2023-05-17T21:20:15.945Z,102810.19
2023-05-17T21:22:45.942Z,102800.66
2023-05-17T21:25:14.841Z,102794.63
2023-05-17T21:27:43.616Z,102780.03
2023-05-17T21:30:16.006Z,102801.53
2023-05-17T21:32:45.057Z,102808.50
2023-05-17T21:35:13.865Z,102807.66
2023-05-17T21:37:42.749Z,102805.03
2023-05-17T21:40:11.940Z,102798.19
2023-05-17T21:42:40.765Z,102807.72
2023-05-17T21:45:11.504Z,102808.72
2023-05-17T21:47:41.904Z,102797.47
2023-05-17T21:50:11.955Z,102802.72
2023-05-17T21:52:40.815Z,102793.22
2023-05-17T21:55:10.395Z,102774.41
2023-05-17T21:57:39.207Z,102806.25
2023-05-17T22:00:12.708Z,102808.00
2023-05-17T22:02:45.116Z,102812.34
2023-05-17T22:05:14.386Z,102801.16
2023-05-17T22:07:44.605Z,102710.78
2023-05-17T22:10:14.528Z,102808.94
2023-05-17T22:12:43.309Z,102797.75
2023-05-17T22:15:13.891Z,102804.66
2023-05-17T22:17:51.877Z,102805.56
2023-05-17T22:20:23.813Z,102807.34
2023-05-17T22:22:55.355Z,102802.09
2023-05-17T22:25:24.262Z,102805.69
2023-05-17T22:27:53.146Z,102798.88
2023-05-17T22:30:22.127Z,102797.19
2023-05-17T22:32:54.764Z,102791.91
2023-05-17T22:35:24.547Z,102809.13
2023-05-17T22:37:53.512Z,102808.28
2023-05-17T22:40:22.619Z,102791.06
2023-05-17T22:42:52.086Z,102811.72
2023-05-17T22:45:21.068Z,102818.63
2023-05-17T22:47:50.765Z,102814.34
2023-05-17T22:50:24.738Z,102814.41
2023-05-17T22:52:56.132Z,102818.75
2023-05-17T22:55:25.411Z,102813.59
2023-05-17T22:57:56.369Z,102820.53
2023-05-17T23:00:25.439Z,102815.38
2023-05-17T23:02:54.466Z,102822.31
2023-05-17T23:05:25.040Z,102812.88
2023-05-17T23:07:54.093Z,102815.44
2023-05-17T23:10:23.589Z,102811.13
2023-05-17T23:12:52.712Z,102818.03
2023-05-17T23:15:21.947Z,102809.38
2023-05-17T23:17:51.117Z,102817.16
2023-05-17T23:20:20.185Z,102813.75
2023-05-17T23:22:50.381Z,102811.19
2023-05-17T23:25:20.744Z,102812.09
2023-05-17T23:27:49.774Z,102821.59
2023-05-17T23:30:21.152Z,102817.31
2023-05-17T23:32:51.339Z,102817.34
2023-05-17T23:35:20.216Z,102819.03
2023-05-17T23:37:52.891Z,102816.50
2023-05-17T23:40:23.982Z,102820.88
2023-05-17T23:42:52.820Z,102815.69
2023-05-17T23:45:21.657Z,102815.69
2023-05-17T23:47:50.551Z,102796.75
2023-05-17T23:50:21.585Z,102801.94
2023-05-17T23:52:54.318Z,102784.75
2023-05-17T23:55:23.338Z,102804.56
2023-05-17T23:57:52.153Z,102796.81
